CST,Max TemperatureF,Mean TemperatureF,Min TemperatureF,Max Dew PointF,MeanDew PointF,Min DewpointF,Max Humidity, Mean Humidity, Min Humidity, Max Sea Level PressureIn, Mean Sea Level PressureIn, Min Sea Level PressureIn, Max VisibilityMiles, Mean VisibilityMiles, Min VisibilityMiles, Max Wind SpeedMPH, Mean Wind SpeedMPH, Max Gust SpeedMPH,PrecipitationIn, CloudCover, Events, WindDirDegrees
2013-1-1,36,30,24,36,31,23,100,98,88,30.26,30.14,30.02,7,3,0,12,7,,0.00,8,Fog-Snow,351
2013-1-2,33,27,21,25,21,19,96,86,61,30.29,30.26,30.21,10,8,5,6,2,,0.00,3,,215
2013-1-3,42,30,19,30,24,18,96,80,51,30.45,30.40,30.29,10,8,4,7,3,,0.00,2,,310
2013-1-4,45,33,21,28,23,21,96,70,40,30.48,30.41,30.34,10,10,6,10,4,,0.00,1,,218
2013-1-5,42,35,28,34,30,21,96,79,70,30.32,30.26,30.17,10,10,2,15,7,22,0.00,6,Snow,208
2013-1-6,45,36,23,31,24,18,100,72,39,30.38,30.33,30.25,10,10,6,10,6,,0.00,0,,315
2013-1-7,50,36,21,28,23,18,92,69,38,30.35,30.26,30.13,10,10,10,14,4,,0.00,0,,176
2013-1-8,55,41,27,46,35,23,100,80,55,30.21,30.13,30.06,10,9,3,13,3,,0.11,5,Rain,169
2013-1-9,53,50,46,47,45,39,100,90,66,30.34,30.25,30.21,10,5,1,18,5,28,0.13,6,Rain,63
2013-1-10,57,52,46,55,49,42,100,96,83,30.18,29.95,29.81,10,9,2,18,13,28,0.13,7,Rain,132
2013-1-11,64,54,44,48,45,43,100,76,48,29.88,29.82,29.73,10,10,10,24,13,37,0.00,2,,191
2013-1-12,57,44,28,51,37,27,100,87,48,29.96,29.86,29.78,10,8,1,22,12,32,0.52,7,Rain-Thunderstorm,5
2013-1-13,28,22,16,26,19,13,93,86,80,30.38,30.17,29.99,10,10,10,16,13,25,0.00,6,,354
2013-1-14,33,24,15,20,16,12,92,77,54,30.49,30.38,30.34,10,10,9,14,6,,0.00,1,,45
2013-1-15,34,26,18,22,17,14,92,74,48,30.34,30.25,30.19,10,10,8,14,4,,0.00,4,,32
2013-1-16,39,28,16,20,18,15,96,69,40,30.23,30.18,30.13,10,9,6,10,4,,0.00,0,,242
2013-1-17,48,36,25,32,26,19,88,69,46,30.50,30.39,30.22,10,10,5,14,7,17,0.00,0,,351
2013-1-18,53,38,24,31,26,22,96,65,37,30.52,30.38,30.21,10,10,10,20,6,24,0.00,0,,191
2013-1-19,61,50,37,36,32,27,82,57,38,30.20,30.16,30.07,10,10,10,15,10,25,0.00,0,,213
2013-1-20,59,46,28,36,29,20,89,62,37,30.27,30.21,30.12,10,10,8,16,5,,0.00,0,,39
2013-1-21,37,29,21,19,16,13,78,61,38,30.40,30.34,30.27,10,10,10,13,9,,0.00,0,,33
2013-1-22,45,33,21,24,20,15,78,64,44,30.34,30.28,30.22,10,10,10,10,5,,0.00,1,,145
2013-1-23,59,42,26,42,34,22,88,74,51,30.26,30.22,30.15,10,10,10,12,4,,0.00,1,,233
2013-1-24,41,37,33,34,26,19,100,64,45,30.31,30.21,30.11,10,9,2,16,11,24,0.00,8,,94
2013-1-25,50,40,30,36,32,29,100,87,50,30.26,30.17,30.10,10,5,1,9,4,,0.10,5,,10
2013-1-26,57,45,33,31,25,19,85,51,24,30.27,30.21,30.13,10,10,10,14,7,,0.00,4,,111
2013-1-27,59,52,44,55,48,36,94,84,66,30.12,30.01,29.93,10,10,8,26,13,34,0.00,7,Rain,173
2013-1-28,71,64,57,61,60,55,94,84,68,29.96,29.89,29.80,10,10,10,21,16,29,0.00,8,,185
2013-1-29,66,56,46,64,57,45,100,94,81,29.83,29.58,29.46,10,6,1,25,16,40,2.18,7,Rain-Thunderstorm,185
2013-1-30,46,34,23,45,29,19,100,85,69,30.07,29.76,29.51,10,9,2,22,12,33,0.01,7,,288
2013-1-31,46,32,19,27,21,10,96,73,46,30.44,30.18,30.04,10,10,10,21,8,22,0.00,2,,286